sensor_id;sensor_type;location;lat;lon;timestamp;temperature;humidity
9446;DHT22;4761;49.490;10.908;2023-05-24T00:02:18;20.90;51.20
9446;DHT22;4761;49.490;10.908;2023-05-24T00:04:44;20.90;51.20
9446;DHT22;4761;49.490;10.908;2023-05-24T00:07:10;20.90;51.20
9446;DHT22;4761;49.490;10.908;2023-05-24T00:09:35;20.90;51.10
9446;DHT22;4761;49.490;10.908;2023-05-24T00:12:01;20.90;51.10
9446;DHT22;4761;49.490;10.908;2023-05-24T00:14:27;20.90;51.00
9446;DHT22;4761;49.490;10.908;2023-05-24T00:16:52;20.90;51.10
9446;DHT22;4761;49.490;10.908;2023-05-24T00:19:18;20.90;51.70
9446;DHT22;4761;49.490;10.908;2023-05-24T00:21:49;20.90;51.10
9446;DHT22;4761;49.490;10.908;2023-05-24T00:24:15;20.90;51.00
9446;DHT22;4761;49.490;10.908;2023-05-24T00:26:41;20.90;51.00
9446;DHT22;4761;49.490;10.908;2023-05-24T00:29:07;20.90;51.00
9446;DHT22;4761;49.490;10.908;2023-05-24T00:31:32;20.90;51.00
9446;DHT22;4761;49.490;10.908;2023-05-24T00:33:58;20.80;50.90
9446;DHT22;4761;49.490;10.908;2023-05-24T00:36:24;20.80;51.00
9446;DHT22;4761;49.490;10.908;2023-05-24T00:38:49;20.90;51.00
9446;DHT22;4761;49.490;10.908;2023-05-24T00:41:15;20.80;50.90
9446;DHT22;4761;49.490;10.908;2023-05-24T00:43:41;20.80;50.90
9446;DHT22;4761;49.490;10.908;2023-05-24T00:46:20;20.80;50.90
9446;DHT22;4761;49.490;10.908;2023-05-24T00:48:49;20.80;50.90
9446;DHT22;4761;49.490;10.908;2023-05-24T00:51:15;20.80;51.00
9446;DHT22;4761;49.490;10.908;2023-05-24T00:53:44;20.80;50.90
9446;DHT22;4761;49.490;10.908;2023-05-24T00:56:12;20.80;51.00
9446;DHT22;4761;49.490;10.908;2023-05-24T00:58:38;20.80;51.00
9446;DHT22;4761;49.490;10.908;2023-05-24T01:01:04;20.80;50.90
9446;DHT22;4761;49.490;10.908;2023-05-24T01:03:30;20.80;51.00
9446;DHT22;4761;49.490;10.908;2023-05-24T01:06:01;20.80;51.00
9446;DHT22;4761;49.490;10.908;2023-05-24T01:08:42;20.80;51.00
9446;DHT22;4761;49.490;10.908;2023-05-24T01:11:38;20.80;51.00
9446;DHT22;4761;49.490;10.908;2023-05-24T01:14:37;20.80;51.00
9446;DHT22;4761;49.490;10.908;2023-05-24T01:17:22;20.70;50.90
9446;DHT22;4761;49.490;10.908;2023-05-24T01:20:08;20.70;50.90
9446;DHT22;4761;49.490;10.908;2023-05-24T01:25:47;20.70;50.90
9446;DHT22;4761;49.490;10.908;2023-05-24T01:28:16;20.70;50.90
9446;DHT22;4761;49.490;10.908;2023-05-24T01:30:41;20.80;50.90
9446;DHT22;4761;49.490;10.908;2023-05-24T01:33:07;20.80;50.90
9446;DHT22;4761;49.490;10.908;2023-05-24T01:35:34;20.80;50.80
9446;DHT22;4761;49.490;10.908;2023-05-24T01:38:07;20.80;50.80
9446;DHT22;4761;49.490;10.908;2023-05-24T01:40:34;20.80;50.80
9446;DHT22;4761;49.490;10.908;2023-05-24T01:43:14;20.80;50.80
9446;DHT22;4761;49.490;10.908;2023-05-24T01:46:00;20.80;50.80
9446;DHT22;4761;49.490;10.908;2023-05-24T01:48:37;20.80;50.70
9446;DHT22;4761;49.490;10.908;2023-05-24T01:51:07;20.80;50.70
9446;DHT22;4761;49.490;10.908;2023-05-24T01:53:41;20.80;50.70
9446;DHT22;4761;49.490;10.908;2023-05-24T01:56:10;20.80;50.70
9446;DHT22;4761;49.490;10.908;2023-05-24T01:58:39;20.80;51.20
9446;DHT22;4761;49.490;10.908;2023-05-24T02:01:06;20.80;50.50
9446;DHT22;4761;49.490;10.908;2023-05-24T02:03:32;20.90;50.50
9446;DHT22;4761;49.490;10.908;2023-05-24T02:05:58;20.90;50.50
9446;DHT22;4761;49.490;10.908;2023-05-24T02:08:23;20.90;50.40
9446;DHT22;4761;49.490;10.908;2023-05-24T02:10:49;20.90;50.30
9446;DHT22;4761;49.490;10.908;2023-05-24T02:13:14;20.90;50.20
9446;DHT22;4761;49.490;10.908;2023-05-24T02:15:42;21.00;50.20
9446;DHT22;4761;49.490;10.908;2023-05-24T02:18:09;21.00;50.20
9446;DHT22;4761;49.490;10.908;2023-05-24T02:20:35;21.00;50.20
9446;DHT22;4761;49.490;10.908;2023-05-24T02:23:05;21.00;50.10
9446;DHT22;4761;49.490;10.908;2023-05-24T02:25:31;21.00;50.20
9446;DHT22;4761;49.490;10.908;2023-05-24T02:27:58;21.00;50.20
9446;DHT22;4761;49.490;10.908;2023-05-24T02:30:24;21.00;50.20
9446;DHT22;4761;49.490;10.908;2023-05-24T02:32:50;20.90;50.20
9446;DHT22;4761;49.490;10.908;2023-05-24T02:35:15;20.90;50.10
9446;DHT22;4761;49.490;10.908;2023-05-24T02:37:41;20.90;50.20
9446;DHT22;4761;49.490;10.908;2023-05-24T02:40:07;20.90;50.20
9446;DHT22;4761;49.490;10.908;2023-05-24T02:42:33;20.90;50.30
9446;DHT22;4761;49.490;10.908;2023-05-24T02:44:58;20.90;50.30
9446;DHT22;4761;49.490;10.908;2023-05-24T02:47:24;20.90;50.40
9446;DHT22;4761;49.490;10.908;2023-05-24T02:49:52;20.90;50.30
9446;DHT22;4761;49.490;10.908;2023-05-24T02:52:17;20.90;50.30
9446;DHT22;4761;49.490;10.908;2023-05-24T02:54:46;20.90;50.30
9446;DHT22;4761;49.490;10.908;2023-05-24T02:57:12;20.90;50.40
9446;DHT22;4761;49.490;10.908;2023-05-24T02:59:37;20.80;50.30
9446;DHT22;4761;49.490;10.908;2023-05-24T03:02:03;20.80;50.30
9446;DHT22;4761;49.490;10.908;2023-05-24T03:04:28;20.80;50.30
9446;DHT22;4761;49.490;10.908;2023-05-24T03:06:54;20.80;50.30
9446;DHT22;4761;49.490;10.908;2023-05-24T03:09:19;20.80;50.30
9446;DHT22;4761;49.490;10.908;2023-05-24T03:11:45;20.80;50.20
9446;DHT22;4761;49.490;10.908;2023-05-24T03:14:10;20.80;50.30
9446;DHT22;4761;49.490;10.908;2023-05-24T03:16:36;20.80;50.30
9446;DHT22;4761;49.490;10.908;2023-05-24T03:19:02;20.80;50.30
9446;DHT22;4761;49.490;10.908;2023-05-24T03:21:28;20.80;50.30
9446;DHT22;4761;49.490;10.908;2023-05-24T03:23:54;20.80;50.30
9446;DHT22;4761;49.490;10.908;2023-05-24T03:26:19;20.80;50.30
9446;DHT22;4761;49.490;10.908;2023-05-24T03:28:46;20.80;50.30
9446;DHT22;4761;49.490;10.908;2023-05-24T03:31:12;20.80;50.20
9446;DHT22;4761;49.490;10.908;2023-05-24T03:33:38;20.80;50.30
9446;DHT22;4761;49.490;10.908;2023-05-24T03:36:04;20.80;50.30
9446;DHT22;4761;49.490;10.908;2023-05-24T03:38:30;20.70;50.20
9446;DHT22;4761;49.490;10.908;2023-05-24T03:40:58;20.80;50.30
9446;DHT22;4761;49.490;10.908;2023-05-24T03:43:23;20.80;50.20
9446;DHT22;4761;49.490;10.908;2023-05-24T03:45:49;20.80;50.30
9446;DHT22;4761;49.490;10.908;2023-05-24T03:48:15;20.80;50.30
9446;DHT22;4761;49.490;10.908;2023-05-24T03:50:41;20.70;50.20
9446;DHT22;4761;49.490;10.908;2023-05-24T03:53:06;20.70;50.20
9446;DHT22;4761;49.490;10.908;2023-05-24T03:55:32;20.70;50.20
9446;DHT22;4761;49.490;10.908;2023-05-24T03:57:57;20.70;50.20
9446;DHT22;4761;49.490;10.908;2023-05-24T04:00:23;20.70;50.20
9446;DHT22;4761;49.490;10.908;2023-05-24T04:02:49;20.70;50.20
9446;DHT22;4761;49.490;10.908;2023-05-24T04:05:14;20.70;50.20
9446;DHT22;4761;49.490;10.908;2023-05-24T04:07:40;20.70;50.20
9446;DHT22;4761;49.490;10.908;2023-05-24T04:10:07;20.70;50.20
9446;DHT22;4761;49.490;10.908;2023-05-24T04:12:33;20.70;50.20
9446;DHT22;4761;49.490;10.908;2023-05-24T04:14:59;20.70;50.20
9446;DHT22;4761;49.490;10.908;2023-05-24T04:17:25;20.70;50.10
9446;DHT22;4761;49.490;10.908;2023-05-24T04:19:52;20.70;50.10
9446;DHT22;4761;49.490;10.908;2023-05-24T04:22:17;20.70;50.10
9446;DHT22;4761;49.490;10.908;2023-05-24T04:24:44;20.70;50.10
9446;DHT22;4761;49.490;10.908;2023-05-24T04:27:10;20.70;50.00
9446;DHT22;4761;49.490;10.908;2023-05-24T04:29:37;20.70;50.10
9446;DHT22;4761;49.490;10.908;2023-05-24T04:32:03;20.70;50.10
9446;DHT22;4761;49.490;10.908;2023-05-24T04:34:29;20.70;50.10
9446;DHT22;4761;49.490;10.908;2023-05-24T04:37:01;20.70;50.10
9446;DHT22;4761;49.490;10.908;2023-05-24T04:39:28;20.70;50.10
9446;DHT22;4761;49.490;10.908;2023-05-24T04:41:54;20.70;50.00
9446;DHT22;4761;49.490;10.908;2023-05-24T04:44:22;20.70;50.10
9446;DHT22;4761;49.490;10.908;2023-05-24T04:46:48;20.70;50.10
9446;DHT22;4761;49.490;10.908;2023-05-24T04:49:14;20.70;50.10
9446;DHT22;4761;49.490;10.908;2023-05-24T04:51:39;20.70;50.10
9446;DHT22;4761;49.490;10.908;2023-05-24T04:54:05;20.60;50.00
9446;DHT22;4761;49.490;10.908;2023-05-24T04:56:34;20.70;50.10
9446;DHT22;4761;49.490;10.908;2023-05-24T04:59:00;20.70;50.10
9446;DHT22;4761;49.490;10.908;2023-05-24T05:01:26;20.70;50.10
9446;DHT22;4761;49.490;10.908;2023-05-24T05:03:51;20.70;50.10
9446;DHT22;4761;49.490;10.908;2023-05-24T05:06:17;20.70;50.20
9446;DHT22;4761;49.490;10.908;2023-05-24T05:08:42;20.70;50.10
9446;DHT22;4761;49.490;10.908;2023-05-24T05:11:08;20.70;50.10
9446;DHT22;4761;49.490;10.908;2023-05-24T05:13:34;20.70;50.10
9446;DHT22;4761;49.490;10.908;2023-05-24T05:16:00;20.70;50.00
9446;DHT22;4761;49.490;10.908;2023-05-24T05:18:26;20.70;50.10
9446;DHT22;4761;49.490;10.908;2023-05-24T05:20:51;20.70;50.10
9446;DHT22;4761;49.490;10.908;2023-05-24T05:23:17;20.60;50.00
9446;DHT22;4761;49.490;10.908;2023-05-24T05:25:42;20.70;50.00
9446;DHT22;4761;49.490;10.908;2023-05-24T05:28:08;20.70;50.00
9446;DHT22;4761;49.490;10.908;2023-05-24T05:30:33;20.70;50.10
9446;DHT22;4761;49.490;10.908;2023-05-24T05:32:59;20.70;50.10
9446;DHT22;4761;49.490;10.908;2023-05-24T05:35:24;20.70;50.10
9446;DHT22;4761;49.490;10.908;2023-05-24T05:37:50;20.70;50.00
9446;DHT22;4761;49.490;10.908;2023-05-24T05:40:15;20.70;50.10
9446;DHT22;4761;49.490;10.908;2023-05-24T05:42:41;20.60;50.00
9446;DHT22;4761;49.490;10.908;2023-05-24T05:45:07;20.60;50.10
9446;DHT22;4761;49.490;10.908;2023-05-24T05:47:32;20.60;50.00
9446;DHT22;4761;49.490;10.908;2023-05-24T05:49:58;20.60;50.00
9446;DHT22;4761;49.490;10.908;2023-05-24T05:52:23;20.60;50.00
9446;DHT22;4761;49.490;10.908;2023-05-24T05:54:49;20.60;50.10
9446;DHT22;4761;49.490;10.908;2023-05-24T05:57:15;20.70;50.10
9446;DHT22;4761;49.490;10.908;2023-05-24T05:59:43;20.60;50.00
9446;DHT22;4761;49.490;10.908;2023-05-24T06:02:09;20.70;50.00
9446;DHT22;4761;49.490;10.908;2023-05-24T06:04:37;20.70;50.00
9446;DHT22;4761;49.490;10.908;2023-05-24T06:07:03;20.70;50.60
9446;DHT22;4761;49.490;10.908;2023-05-24T06:09:28;20.60;49.90
9446;DHT22;4761;49.490;10.908;2023-05-24T06:11:54;20.70;50.00
9446;DHT22;4761;49.490;10.908;2023-05-24T06:14:20;20.70;49.90
9446;DHT22;4761;49.490;10.908;2023-05-24T06:16:46;20.70;49.90
9446;DHT22;4761;49.490;10.908;2023-05-24T06:19:12;20.70;49.90
9446;DHT22;4761;49.490;10.908;2023-05-24T06:21:38;20.70;49.90
9446;DHT22;4761;49.490;10.908;2023-05-24T06:24:05;20.70;50.00
9446;DHT22;4761;49.490;10.908;2023-05-24T06:26:35;20.70;49.90
9446;DHT22;4761;49.490;10.908;2023-05-24T06:29:01;20.70;50.00
9446;DHT22;4761;49.490;10.908;2023-05-24T06:31:26;20.70;50.00
9446;DHT22;4761;49.490;10.908;2023-05-24T06:33:52;20.70;50.00
9446;DHT22;4761;49.490;10.908;2023-05-24T06:36:17;20.70;50.00
9446;DHT22;4761;49.490;10.908;2023-05-24T06:38:43;20.70;49.60
9446;DHT22;4761;49.490;10.908;2023-05-24T06:41:08;20.50;45.40
9446;DHT22;4761;49.490;10.908;2023-05-24T06:43:34;20.40;44.60
9446;DHT22;4761;49.490;10.908;2023-05-24T06:45:59;20.40;44.20
9446;DHT22;4761;49.490;10.908;2023-05-24T06:48:25;20.40;44.10
9446;DHT22;4761;49.490;10.908;2023-05-24T06:50:51;20.40;44.10
9446;DHT22;4761;49.490;10.908;2023-05-24T06:53:16;20.50;43.90
9446;DHT22;4761;49.490;10.908;2023-05-24T06:55:42;20.50;43.70
9446;DHT22;4761;49.490;10.908;2023-05-24T06:58:07;20.60;43.50
9446;DHT22;4761;49.490;10.908;2023-05-24T07:00:41;20.70;43.40
9446;DHT22;4761;49.490;10.908;2023-05-24T07:03:08;20.70;43.10
9446;DHT22;4761;49.490;10.908;2023-05-24T07:05:33;20.80;42.90
9446;DHT22;4761;49.490;10.908;2023-05-24T07:08:00;20.80;42.60
9446;DHT22;4761;49.490;10.908;2023-05-24T07:10:25;20.90;42.40
9446;DHT22;4761;49.490;10.908;2023-05-24T07:12:51;20.90;42.20
9446;DHT22;4761;49.490;10.908;2023-05-24T07:15:16;21.00;42.00
9446;DHT22;4761;49.490;10.908;2023-05-24T07:17:42;21.00;41.70
9446;DHT22;4761;49.490;10.908;2023-05-24T07:20:08;21.00;41.50
9446;DHT22;4761;49.490;10.908;2023-05-24T07:22:35;21.10;41.50
9446;DHT22;4761;49.490;10.908;2023-05-24T07:25:00;21.20;41.40
9446;DHT22;4761;49.490;10.908;2023-05-24T07:27:26;21.20;41.30
9446;DHT22;4761;49.490;10.908;2023-05-24T07:29:51;21.20;41.10
9446;DHT22;4761;49.490;10.908;2023-05-24T07:32:17;21.20;40.90
9446;DHT22;4761;49.490;10.908;2023-05-24T07:34:42;21.30;40.90
9446;DHT22;4761;49.490;10.908;2023-05-24T07:37:08;21.30;40.70
9446;DHT22;4761;49.490;10.908;2023-05-24T07:39:33;21.30;40.40
9446;DHT22;4761;49.490;10.908;2023-05-24T07:41:59;21.30;40.30
9446;DHT22;4761;49.490;10.908;2023-05-24T07:44:25;21.30;40.10
9446;DHT22;4761;49.490;10.908;2023-05-24T07:46:51;21.30;40.00
9446;DHT22;4761;49.490;10.908;2023-05-24T07:49:16;21.40;39.90
9446;DHT22;4761;49.490;10.908;2023-05-24T07:51:42;21.40;39.80
9446;DHT22;4761;49.490;10.908;2023-05-24T07:54:08;21.40;39.70
9446;DHT22;4761;49.490;10.908;2023-05-24T07:56:33;21.40;39.50
9446;DHT22;4761;49.490;10.908;2023-05-24T07:58:59;21.40;39.40
9446;DHT22;4761;49.490;10.908;2023-05-24T08:01:33;21.40;39.40
9446;DHT22;4761;49.490;10.908;2023-05-24T08:04:00;21.60;46.90
9446;DHT22;4761;49.490;10.908;2023-05-24T08:06:25;21.60;47.20
9446;DHT22;4761;49.490;10.908;2023-05-24T08:08:51;21.60;47.50
9446;DHT22;4761;49.490;10.908;2023-05-24T08:11:17;21.40;47.60
9446;DHT22;4761;49.490;10.908;2023-05-24T08:13:43;21.30;47.90
9446;DHT22;4761;49.490;10.908;2023-05-24T08:16:09;21.20;48.10
9446;DHT22;4761;49.490;10.908;2023-05-24T08:18:35;21.10;48.30
9446;DHT22;4761;49.490;10.908;2023-05-24T08:21:00;21.10;48.50
9446;DHT22;4761;49.490;10.908;2023-05-24T08:23:26;21.00;48.60
9446;DHT22;4761;49.490;10.908;2023-05-24T08:25:54;21.00;48.70
9446;DHT22;4761;49.490;10.908;2023-05-24T08:28:20;20.90;48.90
9446;DHT22;4761;49.490;10.908;2023-05-24T08:30:45;20.90;49.00
9446;DHT22;4761;49.490;10.908;2023-05-24T08:33:11;20.80;49.00
9446;DHT22;4761;49.490;10.908;2023-05-24T08:35:36;20.80;49.10
9446;DHT22;4761;49.490;10.908;2023-05-24T08:38:02;20.80;49.20
9446;DHT22;4761;49.490;10.908;2023-05-24T08:40:27;20.80;49.20
9446;DHT22;4761;49.490;10.908;2023-05-24T08:42:54;20.80;49.50
9446;DHT22;4761;49.490;10.908;2023-05-24T08:45:25;20.70;49.40
9446;DHT22;4761;49.490;10.908;2023-05-24T08:47:50;20.70;49.60
9446;DHT22;4761;49.490;10.908;2023-05-24T08:50:17;20.70;49.60
9446;DHT22;4761;49.490;10.908;2023-05-24T08:52:43;20.70;49.60
9446;DHT22;4761;49.490;10.908;2023-05-24T08:55:10;20.70;49.50
9446;DHT22;4761;49.490;10.908;2023-05-24T08:57:36;20.70;49.50
9446;DHT22;4761;49.490;10.908;2023-05-24T09:00:06;20.70;49.50
9446;DHT22;4761;49.490;10.908;2023-05-24T09:02:33;20.70;49.40
9446;DHT22;4761;49.490;10.908;2023-05-24T09:05:00;20.70;49.50
9446;DHT22;4761;49.490;10.908;2023-05-24T09:07:26;20.70;49.50
9446;DHT22;4761;49.490;10.908;2023-05-24T09:09:57;20.70;49.50
9446;DHT22;4761;49.490;10.908;2023-05-24T09:12:23;20.70;49.50
9446;DHT22;4761;49.490;10.908;2023-05-24T09:14:51;20.70;49.40
9446;DHT22;4761;49.490;10.908;2023-05-24T09:17:17;20.70;49.50
9446;DHT22;4761;49.490;10.908;2023-05-24T09:19:46;20.70;49.50
9446;DHT22;4761;49.490;10.908;2023-05-24T09:22:13;20.70;49.50
9446;DHT22;4761;49.490;10.908;2023-05-24T09:25:02;20.70;49.50
9446;DHT22;4761;49.490;10.908;2023-05-24T09:27:31;20.70;49.50
9446;DHT22;4761;49.490;10.908;2023-05-24T09:29:57;20.70;49.40
9446;DHT22;4761;49.490;10.908;2023-05-24T09:32:23;20.70;49.50
9446;DHT22;4761;49.490;10.908;2023-05-24T09:34:51;20.70;49.50
9446;DHT22;4761;49.490;10.908;2023-05-24T09:37:23;20.70;49.50
9446;DHT22;4761;49.490;10.908;2023-05-24T09:39:51;20.70;49.50
9446;DHT22;4761;49.490;10.908;2023-05-24T09:42:18;20.60;49.40
9446;DHT22;4761;49.490;10.908;2023-05-24T09:45:07;20.60;49.50
9446;DHT22;4761;49.490;10.908;2023-05-24T09:47:35;20.60;49.40
9446;DHT22;4761;49.490;10.908;2023-05-24T09:50:03;20.60;49.40
9446;DHT22;4761;49.490;10.908;2023-05-24T09:52:29;20.60;49.50
9446;DHT22;4761;49.490;10.908;2023-05-24T09:54:54;20.60;49.40
9446;DHT22;4761;49.490;10.908;2023-05-24T09:57:20;20.70;49.50
9446;DHT22;4761;49.490;10.908;2023-05-24T09:59:48;20.60;49.50
9446;DHT22;4761;49.490;10.908;2023-05-24T10:02:14;20.60;49.40
9446;DHT22;4761;49.490;10.908;2023-05-24T10:04:42;20.60;49.50
9446;DHT22;4761;49.490;10.908;2023-05-24T10:07:08;20.60;49.50
9446;DHT22;4761;49.490;10.908;2023-05-24T10:09:34;20.60;49.50
9446;DHT22;4761;49.490;10.908;2023-05-24T10:12:05;20.60;49.50
9446;DHT22;4761;49.490;10.908;2023-05-24T10:14:35;20.70;49.60
9446;DHT22;4761;49.490;10.908;2023-05-24T10:17:02;20.70;49.60
9446;DHT22;4761;49.490;10.908;2023-05-24T10:19:30;20.70;49.60
9446;DHT22;4761;49.490;10.908;2023-05-24T10:21:57;20.70;49.70
9446;DHT22;4761;49.490;10.908;2023-05-24T10:24:25;20.70;49.70
9446;DHT22;4761;49.490;10.908;2023-05-24T10:26:53;20.70;49.70
9446;DHT22;4761;49.490;10.908;2023-05-24T10:29:32;20.70;49.70
9446;DHT22;4761;49.490;10.908;2023-05-24T10:32:01;20.70;49.70
9446;DHT22;4761;49.490;10.908;2023-05-24T10:34:28;20.70;49.70
9446;DHT22;4761;49.490;10.908;2023-05-24T10:36:56;20.70;49.80
9446;DHT22;4761;49.490;10.908;2023-05-24T10:39:24;20.70;49.70
9446;DHT22;4761;49.490;10.908;2023-05-24T10:41:50;20.60;49.70
9446;DHT22;4761;49.490;10.908;2023-05-24T10:44:17;20.70;49.80
9446;DHT22;4761;49.490;10.908;2023-05-24T10:49:50;20.70;49.80
9446;DHT22;4761;49.490;10.908;2023-05-24T10:52:17;20.70;49.80
9446;DHT22;4761;49.490;10.908;2023-05-24T10:57:28;20.70;49.90
9446;DHT22;4761;49.490;10.908;2023-05-24T10:59:55;20.70;49.80
9446;DHT22;4761;49.490;10.908;2023-05-24T11:02:21;20.70;49.80
9446;DHT22;4761;49.490;10.908;2023-05-24T11:04:47;20.70;49.80
9446;DHT22;4761;49.490;10.908;2023-05-24T11:07:15;20.70;49.80
9446;DHT22;4761;49.490;10.908;2023-05-24T11:09:41;20.80;50.40
9446;DHT22;4761;49.490;10.908;2023-05-24T11:12:16;20.80;49.80
9446;DHT22;4761;49.490;10.908;2023-05-24T11:14:50;20.80;49.80
9446;DHT22;4761;49.490;10.908;2023-05-24T11:17:21;20.80;49.60
9446;DHT22;4761;49.490;10.908;2023-05-24T11:19:49;20.80;49.50
9446;DHT22;4761;49.490;10.908;2023-05-24T11:22:17;20.80;49.40
9446;DHT22;4761;49.490;10.908;2023-05-24T11:24:44;20.90;49.50
9446;DHT22;4761;49.490;10.908;2023-05-24T11:27:11;20.80;49.30
9446;DHT22;4761;49.490;10.908;2023-05-24T11:29:41;20.90;49.30
9446;DHT22;4761;49.490;10.908;2023-05-24T11:32:07;20.90;49.10
9446;DHT22;4761;49.490;10.908;2023-05-24T11:34:33;20.90;49.00
9446;DHT22;4761;49.490;10.908;2023-05-24T11:37:00;20.90;48.70
9446;DHT22;4761;49.490;10.908;2023-05-24T11:39:33;20.90;48.60
9446;DHT22;4761;49.490;10.908;2023-05-24T11:41:59;20.90;48.60
9446;DHT22;4761;49.490;10.908;2023-05-24T11:44:29;20.90;48.50
9446;DHT22;4761;49.490;10.908;2023-05-24T11:47:00;21.00;48.50
9446;DHT22;4761;49.490;10.908;2023-05-24T11:49:26;21.00;48.50
9446;DHT22;4761;49.490;10.908;2023-05-24T11:51:56;21.00;48.50
9446;DHT22;4761;49.490;10.908;2023-05-24T11:54:22;21.00;48.30
9446;DHT22;4761;49.490;10.908;2023-05-24T11:56:48;21.00;48.30
9446;DHT22;4761;49.490;10.908;2023-05-24T11:59:21;21.00;48.30
9446;DHT22;4761;49.490;10.908;2023-05-24T12:01:47;21.00;48.40
9446;DHT22;4761;49.490;10.908;2023-05-24T12:04:14;21.00;48.50
9446;DHT22;4761;49.490;10.908;2023-05-24T12:06:41;21.00;48.60
9446;DHT22;4761;49.490;10.908;2023-05-24T12:09:08;21.00;48.70
9446;DHT22;4761;49.490;10.908;2023-05-24T12:11:41;21.00;48.70
9446;DHT22;4761;49.490;10.908;2023-05-24T12:14:14;21.00;48.70
9446;DHT22;4761;49.490;10.908;2023-05-24T12:16:44;21.00;48.70
9446;DHT22;4761;49.490;10.908;2023-05-24T12:19:19;21.00;48.80
9446;DHT22;4761;49.490;10.908;2023-05-24T12:21:46;21.00;48.90
9446;DHT22;4761;49.490;10.908;2023-05-24T12:24:16;21.00;49.10
9446;DHT22;4761;49.490;10.908;2023-05-24T12:26:46;21.00;49.10
9446;DHT22;4761;49.490;10.908;2023-05-24T12:29:12;21.00;49.70
9446;DHT22;4761;49.490;10.908;2023-05-24T12:31:39;21.00;49.20
9446;DHT22;4761;49.490;10.908;2023-05-24T12:34:06;21.00;49.30
9446;DHT22;4761;49.490;10.908;2023-05-24T12:36:33;21.00;49.30
9446;DHT22;4761;49.490;10.908;2023-05-24T12:39:03;21.00;49.40
9446;DHT22;4761;49.490;10.908;2023-05-24T12:41:29;21.00;49.50
9446;DHT22;4761;49.490;10.908;2023-05-24T12:43:55;21.00;49.50
9446;DHT22;4761;49.490;10.908;2023-05-24T12:46:21;21.10;51.00
9446;DHT22;4761;49.490;10.908;2023-05-24T12:48:47;21.10;50.00
9446;DHT22;4761;49.490;10.908;2023-05-24T12:51:13;21.00;50.00
9446;DHT22;4761;49.490;10.908;2023-05-24T12:53:39;21.10;50.00
9446;DHT22;4761;49.490;10.908;2023-05-24T12:56:04;21.10;50.00
9446;DHT22;4761;49.490;10.908;2023-05-24T12:58:30;21.10;50.10
9446;DHT22;4761;49.490;10.908;2023-05-24T13:00:56;21.10;49.40
9446;DHT22;4761;49.490;10.908;2023-05-24T13:03:21;21.10;49.40
9446;DHT22;4761;49.490;10.908;2023-05-24T13:05:47;21.10;49.50
9446;DHT22;4761;49.490;10.908;2023-05-24T13:08:12;21.10;49.70
9446;DHT22;4761;49.490;10.908;2023-05-24T13:10:38;21.10;49.80
9446;DHT22;4761;49.490;10.908;2023-05-24T13:13:04;21.10;49.70
9446;DHT22;4761;49.490;10.908;2023-05-24T13:15:31;21.10;50.00
9446;DHT22;4761;49.490;10.908;2023-05-24T13:17:56;21.10;50.00
9446;DHT22;4761;49.490;10.908;2023-05-24T13:20:22;21.10;49.80
9446;DHT22;4761;49.490;10.908;2023-05-24T13:22:48;21.20;50.10
9446;DHT22;4761;49.490;10.908;2023-05-24T13:25:13;21.10;50.10
9446;DHT22;4761;49.490;10.908;2023-05-24T13:27:39;21.10;50.20
9446;DHT22;4761;49.490;10.908;2023-05-24T13:30:06;21.20;50.10
9446;DHT22;4761;49.490;10.908;2023-05-24T13:32:31;21.20;50.20
9446;DHT22;4761;49.490;10.908;2023-05-24T13:34:57;21.20;50.20
9446;DHT22;4761;49.490;10.908;2023-05-24T13:37:23;21.20;50.10
9446;DHT22;4761;49.490;10.908;2023-05-24T13:39:49;21.20;50.30
9446;DHT22;4761;49.490;10.908;2023-05-24T13:42:15;21.20;50.30
9446;DHT22;4761;49.490;10.908;2023-05-24T13:44:41;21.20;50.10
9446;DHT22;4761;49.490;10.908;2023-05-24T13:47:07;21.20;49.80
9446;DHT22;4761;49.490;10.908;2023-05-24T13:49:33;21.20;49.70
9446;DHT22;4761;49.490;10.908;2023-05-24T13:51:58;21.20;49.70
9446;DHT22;4761;49.490;10.908;2023-05-24T13:54:24;21.20;49.80
9446;DHT22;4761;49.490;10.908;2023-05-24T13:56:50;21.10;49.40
9446;DHT22;4761;49.490;10.908;2023-05-24T13:59:16;21.20;49.10
9446;DHT22;4761;49.490;10.908;2023-05-24T14:01:42;21.20;49.10
9446;DHT22;4761;49.490;10.908;2023-05-24T14:04:08;21.20;49.20
9446;DHT22;4761;49.490;10.908;2023-05-24T14:06:34;21.20;49.20
9446;DHT22;4761;49.490;10.908;2023-05-24T14:09:02;21.10;49.10
9446;DHT22;4761;49.490;10.908;2023-05-24T14:11:28;21.10;49.30
9446;DHT22;4761;49.490;10.908;2023-05-24T14:13:55;21.10;49.40
9446;DHT22;4761;49.490;10.908;2023-05-24T14:16:21;21.10;49.40
9446;DHT22;4761;49.490;10.908;2023-05-24T14:18:47;21.10;49.50
9446;DHT22;4761;49.490;10.908;2023-05-24T14:21:14;21.10;49.50
9446;DHT22;4761;49.490;10.908;2023-05-24T14:23:40;21.10;50.10
9446;DHT22;4761;49.490;10.908;2023-05-24T14:26:05;21.10;49.60
9446;DHT22;4761;49.490;10.908;2023-05-24T14:28:31;21.10;49.70
9446;DHT22;4761;49.490;10.908;2023-05-24T14:30:56;21.10;49.50
9446;DHT22;4761;49.490;10.908;2023-05-24T14:33:22;21.10;49.40
9446;DHT22;4761;49.490;10.908;2023-05-24T14:35:49;21.20;49.60
9446;DHT22;4761;49.490;10.908;2023-05-24T14:38:15;21.20;49.60
9446;DHT22;4761;49.490;10.908;2023-05-24T14:40:41;21.20;49.80
9446;DHT22;4761;49.490;10.908;2023-05-24T14:43:06;21.20;49.40
9446;DHT22;4761;49.490;10.908;2023-05-24T14:45:34;21.20;49.30
9446;DHT22;4761;49.490;10.908;2023-05-24T14:48:03;21.20;49.50
9446;DHT22;4761;49.490;10.908;2023-05-24T14:50:29;21.20;49.10
9446;DHT22;4761;49.490;10.908;2023-05-24T14:52:55;21.20;49.40
9446;DHT22;4761;49.490;10.908;2023-05-24T14:55:21;21.20;49.50
9446;DHT22;4761;49.490;10.908;2023-05-24T14:57:47;21.20;49.40
9446;DHT22;4761;49.490;10.908;2023-05-24T15:00:13;21.20;49.40
9446;DHT22;4761;49.490;10.908;2023-05-24T15:02:39;21.20;49.40
9446;DHT22;4761;49.490;10.908;2023-05-24T15:05:05;21.20;49.50
9446;DHT22;4761;49.490;10.908;2023-05-24T15:07:31;21.20;49.40
9446;DHT22;4761;49.490;10.908;2023-05-24T15:09:56;21.20;49.30
9446;DHT22;4761;49.490;10.908;2023-05-24T15:12:22;21.20;49.30
9446;DHT22;4761;49.490;10.908;2023-05-24T15:14:47;21.20;49.10
9446;DHT22;4761;49.490;10.908;2023-05-24T15:17:13;21.20;49.20
9446;DHT22;4761;49.490;10.908;2023-05-24T15:19:39;21.20;49.30
9446;DHT22;4761;49.490;10.908;2023-05-24T15:22:07;21.20;49.30
9446;DHT22;4761;49.490;10.908;2023-05-24T15:24:33;21.20;48.80
9446;DHT22;4761;49.490;10.908;2023-05-24T15:26:58;21.20;48.70
9446;DHT22;4761;49.490;10.908;2023-05-24T15:29:24;21.20;48.70
9446;DHT22;4761;49.490;10.908;2023-05-24T15:31:49;21.20;48.70
9446;DHT22;4761;49.490;10.908;2023-05-24T15:34:15;21.20;48.30
9446;DHT22;4761;49.490;10.908;2023-05-24T15:36:41;21.20;48.50
9446;DHT22;4761;49.490;10.908;2023-05-24T15:39:07;21.20;48.40
9446;DHT22;4761;49.490;10.908;2023-05-24T15:41:34;21.20;48.30
9446;DHT22;4761;49.490;10.908;2023-05-24T15:44:01;21.20;49.20
9446;DHT22;4761;49.490;10.908;2023-05-24T15:46:33;21.20;48.40
9446;DHT22;4761;49.490;10.908;2023-05-24T15:49:00;21.20;48.60
9446;DHT22;4761;49.490;10.908;2023-05-24T15:51:25;21.20;48.70
9446;DHT22;4761;49.490;10.908;2023-05-24T15:53:51;21.20;48.60